createdAt,value
2023-04-01T00:00:35.972Z,45.65
2023-04-01T00:03:13.755Z,41.60
2023-04-01T00:05:49.037Z,39.80
2023-04-01T00:09:32.032Z,39.95
2023-04-01T00:12:03.536Z,35.83
2023-04-01T00:15:30.405Z,34.67
2023-04-01T00:21:38.332Z,37.45
2023-04-01T00:24:05.989Z,37.58
2023-04-01T00:26:33.582Z,41.53
2023-04-01T00:29:01.910Z,37.60
2023-04-01T00:31:30.021Z,40.70
2023-04-01T00:33:57.891Z,40.22
2023-04-01T00:36:26.247Z,38.47
2023-04-01T00:38:53.992Z,33.10
2023-04-01T00:41:22.568Z,33.00
2023-04-01T00:43:52.144Z,37.42
2023-04-01T00:46:20.494Z,40.00
2023-04-01T00:48:56.328Z,34.67
2023-04-01T00:51:28.278Z,39.42
2023-04-01T00:53:59.180Z,37.10
2023-04-01T00:56:33.300Z,40.25
2023-04-01T00:59:19.771Z,39.17
2023-04-01T01:01:48.186Z,35.08
2023-04-01T01:04:42.047Z,36.17
2023-04-01T01:07:15.003Z,31.88
2023-04-01T01:10:05.979Z,33.45
2023-04-01T01:12:47.090Z,35.13
2023-04-01T01:15:49.907Z,33.38
2023-04-01T01:18:17.529Z,37.67
2023-04-01T01:21:18.716Z,41.75
2023-04-01T01:24:23.825Z,41.28
2023-04-01T01:27:04.084Z,43.15
2023-04-01T01:29:57.131Z,40.80
2023-04-01T01:32:40.021Z,39.15
2023-04-01T01:35:44.734Z,43.05
2023-04-01T01:38:25.458Z,42.63
2023-04-01T01:41:02.467Z,38.45
2023-04-01T01:43:36.751Z,41.58
2023-04-01T01:46:10.882Z,41.83
2023-04-01T01:48:39.865Z,42.67
2023-04-01T01:51:07.943Z,42.30
2023-04-01T01:53:36.696Z,44.08
2023-04-01T01:56:04.809Z,49.20
2023-04-01T01:58:42.266Z,42.35
2023-04-01T02:01:18.487Z,46.05
2023-04-01T02:03:48.079Z,48.05
2023-04-01T02:06:20.211Z,48.90
2023-04-01T02:09:07.817Z,45.50
2023-04-01T02:11:49.583Z,45.35
2023-04-01T02:14:23.625Z,47.15
2023-04-01T02:16:58.229Z,42.50
2023-04-01T02:19:33.049Z,44.50
2023-04-01T02:22:03.897Z,49.72
2023-04-01T02:24:34.617Z,49.00
2023-04-01T02:27:02.585Z,49.33
2023-04-01T02:29:31.494Z,42.58
2023-04-01T02:32:00.104Z,39.75
2023-04-01T02:34:28.117Z,37.22
2023-04-01T02:36:57.201Z,43.50
2023-04-01T02:39:26.675Z,36.38
2023-04-01T02:41:54.393Z,34.55
2023-04-01T02:44:21.911Z,32.42
2023-04-01T02:46:49.596Z,37.45
2023-04-01T02:49:17.237Z,37.40
2023-04-01T02:51:46.023Z,32.10
2023-04-01T02:54:13.730Z,34.92
2023-04-01T02:56:41.430Z,33.88
2023-04-01T02:59:08.970Z,36.10
2023-04-01T03:01:36.759Z,40.45
2023-04-01T03:04:05.081Z,36.50
2023-04-01T03:06:32.656Z,44.38
2023-04-01T03:09:00.177Z,44.40
2023-04-01T03:11:28.036Z,38.83
2023-04-01T03:13:55.666Z,41.25
2023-04-01T03:16:23.747Z,39.65
2023-04-01T03:18:53.758Z,37.60
2023-04-01T03:21:24.153Z,35.60
2023-04-01T03:23:51.977Z,33.70
2023-04-01T03:26:20.168Z,29.25
2023-04-01T03:28:47.793Z,37.30
2023-04-01T03:31:17.241Z,34.20
2023-04-01T03:33:51.156Z,34.65
2023-04-01T03:36:19.325Z,31.52
2023-04-01T03:38:48.099Z,40.85
2023-04-01T03:41:22.144Z,36.78
2023-04-01T03:43:49.839Z,33.65
2023-04-01T03:46:21.928Z,35.65
2023-04-01T03:48:49.731Z,32.42
2023-04-01T03:51:17.427Z,35.75
2023-04-01T03:53:45.007Z,37.88
2023-04-01T03:56:13.099Z,37.17
2023-04-01T03:58:40.775Z,32.92
2023-04-01T04:01:22.079Z,33.70
2023-04-01T04:03:53.708Z,35.10
2023-04-01T04:06:24.239Z,33.75
2023-04-01T04:08:52.547Z,27.67
2023-04-01T04:11:21.200Z,29.88
2023-04-01T04:13:49.588Z,29.60
2023-04-01T04:16:18.481Z,32.17
2023-04-01T04:18:52.087Z,37.22
2023-04-01T04:21:20.659Z,35.15
2023-04-01T04:23:48.240Z,37.42
2023-04-01T04:26:18.264Z,41.63
2023-04-01T04:28:52.371Z,43.13
2023-04-01T04:31:22.365Z,41.08
2023-04-01T04:33:52.425Z,41.28
2023-04-01T04:36:21.143Z,41.30
2023-04-01T04:38:50.935Z,45.63
2023-04-01T04:41:19.863Z,44.38
2023-04-01T04:43:57.607Z,43.47
2023-04-01T04:46:27.132Z,41.90
2023-04-01T04:49:01.371Z,39.63
2023-04-01T04:51:29.397Z,40.45
2023-04-01T04:53:58.171Z,45.55
2023-04-01T04:56:37.564Z,42.15
2023-04-01T04:59:09.673Z,40.03
2023-04-01T05:01:46.525Z,41.75
2023-04-01T05:04:14.784Z,39.72
2023-04-01T05:06:45.354Z,42.40
2023-04-01T05:09:14.186Z,40.30
2023-04-01T05:11:42.459Z,47.38
2023-04-01T05:14:17.974Z,44.95
2023-04-01T05:16:55.490Z,44.53
2023-04-01T05:19:24.380Z,43.72
2023-04-01T05:21:53.932Z,39.97
2023-04-01T05:24:21.518Z,45.00
2023-04-01T05:26:49.257Z,40.30
2023-04-01T05:29:16.748Z,38.42
2023-04-01T05:31:46.289Z,43.05
2023-04-01T05:34:14.693Z,41.42
2023-04-01T05:36:43.110Z,40.92
2023-04-01T05:39:10.910Z,39.80
2023-04-01T05:41:39.913Z,40.30
2023-04-01T05:44:07.368Z,36.53
2023-04-01T05:46:40.583Z,40.08
2023-04-01T05:49:28.921Z,37.28
2023-04-01T05:51:57.380Z,35.67
2023-04-01T05:54:24.920Z,36.88
2023-04-01T05:56:52.743Z,35.45
2023-04-01T05:59:21.371Z,34.53
2023-04-01T06:01:49.029Z,34.08
2023-04-01T06:04:18.796Z,36.25
2023-04-01T06:06:47.218Z,34.88
2023-04-01T06:09:18.238Z,36.47
2023-04-01T06:12:09.880Z,36.20
2023-04-01T06:14:57.302Z,32.45
2023-04-01T06:17:44.286Z,31.50
2023-04-01T06:20:27.141Z,36.83
2023-04-01T06:23:11.844Z,38.72
2023-04-01T06:25:46.455Z,38.13
2023-04-01T06:28:38.882Z,37.83
2023-04-01T06:31:06.478Z,39.97
2023-04-01T06:34:07.903Z,41.65
2023-04-01T06:37:01.559Z,43.33
2023-04-01T06:40:10.007Z,46.50
2023-04-01T06:43:02.428Z,48.33
2023-04-01T06:46:08.934Z,44.05
2023-04-01T06:49:07.731Z,48.17
2023-04-01T06:52:36.101Z,50.28
2023-04-01T06:55:22.869Z,48.78
2023-04-01T06:58:20.759Z,41.67
2023-04-01T07:00:53.135Z,40.60
2023-04-01T07:03:38.668Z,40.00
2023-04-01T07:06:39.572Z,35.08
2023-04-01T07:09:13.061Z,29.08
2023-04-01T07:13:17.240Z,25.00
2023-04-01T07:20:22.037Z,25.17
2023-04-01T07:23:04.667Z,27.55
2023-04-01T07:26:25.449Z,23.40
2023-04-01T07:29:28.103Z,22.10
2023-04-01T07:32:19.380Z,19.42
2023-04-01T07:35:10.109Z,21.02
2023-04-01T07:37:43.603Z,21.88
2023-04-01T07:40:11.192Z,20.50
2023-04-01T07:43:06.351Z,19.92
2023-04-01T07:45:54.567Z,19.60
2023-04-01T08:02:16.934Z,17.92
2023-04-01T08:06:09.872Z,16.83
2023-04-01T08:09:07.045Z,17.05
2023-04-01T08:13:39.989Z,17.27
2023-04-01T08:31:37.585Z,15.45
2023-04-01T08:34:19.512Z,14.73
2023-04-01T08:37:10.705Z,15.05
2023-04-01T08:40:01.388Z,15.20
2023-04-01T08:43:05.771Z,18.33
2023-04-01T08:45:57.243Z,17.35
2023-04-01T08:48:58.859Z,17.73
2023-04-01T08:51:48.821Z,15.73
2023-04-01T08:54:30.727Z,16.48
2023-04-01T08:57:22.780Z,15.93
2023-04-01T09:00:21.847Z,15.45
2023-04-01T09:03:38.729Z,17.08
2023-04-01T09:06:32.863Z,18.25
2023-04-01T09:09:27.086Z,17.10
2023-04-01T09:12:13.869Z,15.77
2023-04-01T09:15:26.164Z,15.80
2023-04-01T09:18:24.668Z,13.75
2023-04-01T09:21:11.713Z,14.32
2023-04-01T09:23:58.037Z,13.95
2023-04-01T09:27:02.172Z,14.07
2023-04-01T09:30:04.140Z,15.82
2023-04-01T09:33:06.432Z,13.88
2023-04-01T09:35:51.910Z,12.95
2023-04-01T09:38:51.984Z,13.63
2023-04-01T09:41:58.050Z,13.73
2023-04-01T09:44:57.747Z,13.18
2023-04-01T09:47:47.346Z,14.65
2023-04-01T09:50:37.844Z,13.90
2023-04-01T09:53:30.632Z,13.25
2023-04-01T09:56:49.289Z,12.38
2023-04-01T10:00:46.892Z,12.18
2023-04-01T10:06:58.062Z,12.18
2023-04-01T10:09:54.979Z,13.48
2023-04-01T10:12:40.826Z,10.63
2023-04-01T10:15:37.219Z,12.80
2023-04-01T10:18:09.076Z,14.35
2023-04-01T10:20:36.757Z,12.65
2023-04-01T10:23:36.274Z,6.88
2023-04-01T10:26:10.090Z,8.70
2023-04-01T10:47:04.191Z,2.88
2023-04-01T11:21:53.358Z,2.25
2023-04-01T12:23:48.263Z,5.67
2023-04-01T12:27:40.212Z,5.45
2023-04-01T12:35:11.250Z,3.70
2023-04-01T12:38:46.829Z,3.13
2023-04-01T13:09:01.891Z,4.55
2023-04-01T13:12:29.969Z,3.67
2023-04-01T13:15:29.592Z,5.97
2023-04-01T13:18:18.755Z,4.35
2023-04-01T13:20:55.503Z,4.40
2023-04-01T13:24:11.160Z,7.32
2023-04-01T13:27:06.612Z,5.20
2023-04-01T13:29:49.607Z,4.78
2023-04-01T13:36:16.967Z,3.53
2023-04-01T13:39:48.061Z,2.67
2023-04-01T13:42:41.148Z,3.17
2023-04-01T13:45:27.904Z,2.97
2023-04-01T13:48:04.773Z,4.28
2023-04-01T13:51:08.759Z,4.22
2023-04-01T13:53:53.219Z,3.40
2023-04-01T13:56:35.623Z,3.17
2023-04-01T13:59:27.708Z,3.70
2023-04-01T14:02:34.312Z,3.42
2023-04-01T14:05:10.844Z,2.97
2023-04-01T14:07:57.157Z,2.88
2023-04-01T14:11:02.070Z,3.85
2023-04-01T14:14:08.248Z,3.58
2023-04-01T14:16:58.587Z,2.92
2023-04-01T14:19:47.636Z,3.75
2023-04-01T14:23:10.158Z,3.03
2023-04-01T14:25:46.917Z,3.20
2023-04-01T14:28:42.011Z,6.57
2023-04-01T14:31:24.637Z,3.03
2023-04-01T14:34:13.034Z,5.70
2023-04-01T14:36:58.679Z,2.88
2023-04-01T14:40:30.066Z,4.10
2023-04-01T14:43:21.258Z,4.95
2023-04-01T14:46:15.799Z,2.42
2023-04-01T14:49:03.844Z,2.28
2023-04-01T14:51:40.735Z,1.05
2023-04-01T14:54:30.483Z,2.67
2023-04-01T14:57:14.155Z,1.98
2023-04-01T14:59:50.883Z,0.70
2023-04-01T15:03:09.068Z,0.70
2023-04-01T15:05:54.766Z,4.93
2023-04-01T15:08:27.958Z,3.80
2023-04-01T15:10:58.422Z,4.78
2023-04-01T15:13:34.801Z,4.00
2023-04-01T15:16:02.262Z,3.53
2023-04-01T15:18:51.528Z,3.33
2023-04-01T15:21:35.185Z,4.00
2023-04-01T15:24:39.442Z,3.65
2023-04-01T15:27:13.939Z,6.03
2023-04-01T15:29:53.362Z,4.75
2023-04-01T15:32:31.284Z,3.38
2023-04-01T15:35:16.415Z,6.55
2023-04-01T15:37:56.949Z,3.53
2023-04-01T15:40:43.201Z,6.85
2023-04-01T15:43:25.535Z,3.78
2023-04-01T15:45:59.297Z,5.00
2023-04-01T15:48:40.592Z,5.13
2023-04-01T15:51:21.414Z,4.82
2023-04-01T15:54:03.953Z,3.72
2023-04-01T15:56:51.038Z,2.63
2023-04-01T16:00:12.021Z,2.33
2023-04-01T16:02:53.915Z,2.47
2023-04-01T16:05:27.097Z,1.50
2023-04-01T16:08:02.572Z,2.03
2023-04-01T16:10:45.580Z,1.42
2023-04-01T16:13:45.159Z,1.35
2023-04-01T16:17:01.793Z,2.20
2023-04-01T16:19:50.179Z,1.73
2023-04-01T16:22:27.662Z,2.15
2023-04-01T16:25:32.969Z,1.60
2023-04-01T16:28:35.288Z,1.17
2023-04-01T16:31:28.801Z,4.00
2023-04-01T16:34:17.234Z,1.20
2023-04-01T16:36:53.883Z,2.58
2023-04-01T16:39:36.413Z,1.85
2023-04-01T16:42:29.949Z,6.63
2023-04-01T16:45:09.446Z,5.28
2023-04-01T16:47:42.266Z,1.63
2023-04-01T16:50:25.121Z,2.50
2023-04-01T16:53:04.417Z,4.25
2023-04-01T16:55:52.113Z,2.45
2023-04-01T16:58:26.005Z,1.20
2023-04-01T17:01:10.184Z,2.75
2023-04-01T17:03:46.848Z,1.88
2023-04-01T17:06:45.225Z,1.38
2023-04-01T17:09:37.303Z,1.98
2023-04-01T17:12:45.191Z,2.10
2023-04-01T17:15:31.462Z,1.95
2023-04-01T17:18:05.022Z,1.50
2023-04-01T17:20:39.358Z,1.85
2023-04-01T17:23:21.354Z,2.55
2023-04-01T17:26:06.917Z,3.08
2023-04-01T17:29:16.327Z,4.75
2023-04-01T17:32:03.914Z,6.57
2023-04-01T17:34:34.926Z,5.63
2023-04-01T17:37:17.441Z,7.45
2023-04-01T17:39:54.483Z,5.00
2023-04-01T17:42:40.953Z,6.40
2023-04-01T17:45:17.596Z,6.22
2023-04-01T17:47:55.767Z,6.90
2023-04-01T17:50:37.602Z,7.70
2023-04-01T17:53:43.169Z,8.38
2023-04-01T17:56:23.536Z,7.95
2023-04-01T17:59:04.042Z,8.27
2023-04-01T18:01:44.350Z,8.93
2023-04-01T18:04:38.559Z,7.75
2023-04-01T18:07:26.621Z,10.30
2023-04-01T18:10:26.460Z,10.70
2023-04-01T18:13:31.444Z,13.07
2023-04-01T18:16:19.340Z,9.50
2023-04-01T18:19:02.726Z,12.07
2023-04-01T18:21:50.009Z,10.60
2023-04-01T18:24:43.126Z,9.40
2023-04-01T18:27:10.645Z,11.95
2023-04-01T18:29:46.941Z,9.93
2023-04-01T18:32:17.123Z,16.25
2023-04-01T18:35:15.572Z,9.13
2023-04-01T18:38:24.690Z,11.45
2023-04-01T18:41:14.092Z,11.65
2023-04-01T18:43:57.861Z,12.40
2023-04-01T18:46:46.980Z,13.52
2023-04-01T18:49:44.632Z,12.77
2023-04-01T18:52:21.436Z,14.10
2023-04-01T18:55:02.034Z,15.82
2023-04-01T18:57:58.274Z,14.80
2023-04-01T19:03:27.668Z,13.18
2023-04-01T19:06:00.136Z,14.20
2023-04-01T19:08:35.459Z,15.00
2023-04-01T19:11:18.050Z,16.33
2023-04-01T19:14:32.497Z,14.85
2023-04-01T19:17:11.009Z,14.75
2023-04-01T19:20:10.641Z,18.50
2023-04-01T19:22:53.231Z,18.55
2023-04-01T19:25:35.542Z,16.05
2023-04-01T19:28:33.192Z,14.35
2023-04-01T19:31:16.749Z,16.20
2023-04-01T19:33:55.987Z,14.30
2023-04-01T19:36:39.911Z,14.85
2023-04-01T19:39:46.550Z,14.95
2023-04-01T19:42:42.554Z,15.80
2023-04-01T19:45:31.792Z,15.05
2023-04-01T19:48:17.267Z,14.32
2023-04-01T19:50:48.870Z,13.60
2023-04-01T19:53:27.169Z,14.95
2023-04-01T19:56:18.092Z,17.35
2023-04-01T19:58:55.511Z,16.85
2023-04-01T20:01:44.907Z,15.20
2023-04-01T20:04:18.379Z,13.55
2023-04-01T20:06:51.911Z,16.05
2023-04-01T20:09:35.070Z,14.18
2023-04-01T20:12:13.232Z,14.45
2023-04-01T20:14:50.074Z,17.00
2023-04-01T20:17:25.851Z,15.85
2023-04-01T20:20:20.061Z,16.08
2023-04-01T20:34:00.734Z,17.25
2023-04-01T20:37:12.291Z,16.67
2023-04-01T20:40:05.438Z,16.05
2023-04-01T20:43:21.509Z,16.58
2023-04-01T20:46:10.410Z,12.80
2023-04-01T20:49:14.628Z,13.38
2023-04-01T20:51:57.216Z,13.57
2023-04-01T20:55:10.864Z,11.10
2023-04-01T20:57:47.354Z,13.65
2023-04-01T21:00:19.132Z,11.45
2023-04-01T21:03:19.210Z,13.27
2023-04-01T21:22:45.696Z,14.32
2023-04-01T21:26:09.895Z,17.88
2023-04-01T21:28:55.152Z,21.35
2023-04-01T21:31:22.629Z,22.05
2023-04-01T21:34:27.424Z,23.95
2023-04-01T21:36:55.099Z,23.58
2023-04-01T21:39:42.423Z,24.85
2023-04-01T21:42:43.789Z,25.85
2023-04-01T21:45:19.176Z,24.17
2023-04-01T21:48:08.369Z,26.60
2023-04-01T21:50:57.160Z,28.70
2023-04-01T21:54:09.960Z,25.30
2023-04-01T21:56:46.332Z,26.00
2023-04-01T21:59:44.594Z,25.02
2023-04-01T22:02:33.708Z,23.02
2023-04-01T22:05:23.634Z,25.35
2023-04-01T22:07:57.474Z,26.95
2023-04-01T22:10:42.573Z,23.70
2023-04-01T22:13:44.505Z,25.95
2023-04-01T22:16:41.080Z,25.42
2023-04-01T22:19:42.976Z,27.35
2023-04-01T22:22:52.720Z,27.10
2023-04-01T22:25:30.385Z,27.08
2023-04-01T22:50:35.483Z,29.43
2023-04-01T22:53:15.460Z,28.00
2023-04-01T22:56:03.366Z,28.83
2023-04-01T22:58:41.718Z,30.80
2023-04-01T23:01:17.859Z,30.48
2023-04-01T23:03:48.661Z,27.98
2023-04-01T23:06:28.056Z,28.60
2023-04-01T23:09:27.949Z,32.65
2023-04-01T23:12:04.529Z,31.10
2023-04-01T23:14:41.870Z,27.83
2023-04-01T23:17:36.564Z,27.60
2023-04-01T23:20:13.618Z,30.33
2023-04-01T23:22:57.801Z,27.98
2023-04-01T23:25:37.419Z,29.25
2023-04-01T23:28:41.540Z,32.50
2023-04-01T23:31:30.506Z,28.92
2023-04-01T23:34:01.893Z,29.27
2023-04-01T23:36:32.025Z,28.92
2023-04-01T23:39:04.596Z,31.65
2023-04-01T23:41:33.973Z,28.83
2023-04-01T23:44:06.460Z,30.35
2023-04-01T23:46:36.816Z,30.73
2023-04-01T23:49:06.268Z,28.40
2023-04-01T23:51:40.682Z,31.45
2023-04-01T23:54:28.100Z,29.55
2023-04-01T23:56:57.762Z,30.55
2023-04-01T23:59:30.140Z,29.33
